sensor_id;sensor_type;location;lat;lon;timestamp;pressure;altitude;pressure_sealevel;temperature;humidity
5966;BME280;3009;43.224;27.976;2023-05-27T00:02:17;100222.75;;;15.93;100.00
5966;BME280;3009;43.224;27.976;2023-05-27T00:04:50;100219.41;;;16.00;100.00
5966;BME280;3009;43.224;27.976;2023-05-27T00:07:18;100215.16;;;15.99;100.00
5966;BME280;3009;43.224;27.976;2023-05-27T00:09:47;100218.56;;;15.96;100.00
5966;BME280;3009;43.224;27.976;2023-05-27T00:12:15;100226.69;;;15.96;100.00
5966;BME280;3009;43.224;27.976;2023-05-27T00:14:43;100226.22;;;15.94;100.00
5966;BME280;3009;43.224;27.976;2023-05-27T00:17:12;100232.25;;;15.87;100.00
5966;BME280;3009;43.224;27.976;2023-05-27T00:19:41;100224.75;;;15.97;100.00
5966;BME280;3009;43.224;27.976;2023-05-27T00:22:15;100228.88;;;16.06;100.00
5966;BME280;3009;43.224;27.976;2023-05-27T00:24:43;100223.81;;;16.05;100.00
5966;BME280;3009;43.224;27.976;2023-05-27T00:27:12;100225.53;;;15.97;100.00
5966;BME280;3009;43.224;27.976;2023-05-27T00:29:40;100217.59;;;15.88;100.00
5966;BME280;3009;43.224;27.976;2023-05-27T00:32:08;100219.16;;;15.89;100.00
5966;BME280;3009;43.224;27.976;2023-05-27T00:34:37;100219.50;;;15.88;100.00
5966;BME280;3009;43.224;27.976;2023-05-27T00:37:05;100216.03;;;15.87;100.00
5966;BME280;3009;43.224;27.976;2023-05-27T00:39:35;100231.47;;;15.87;100.00
5966;BME280;3009;43.224;27.976;2023-05-27T00:42:04;100226.84;;;15.87;100.00
5966;BME280;3009;43.224;27.976;2023-05-27T00:44:34;100227.19;;;15.86;100.00
5966;BME280;3009;43.224;27.976;2023-05-27T00:47:02;100225.38;;;15.90;100.00
5966;BME280;3009;43.224;27.976;2023-05-27T00:49:31;100212.78;;;15.82;100.00
5966;BME280;3009;43.224;27.976;2023-05-27T00:51:59;100208.53;;;15.81;100.00
5966;BME280;3009;43.224;27.976;2023-05-27T00:54:29;100204.25;;;15.80;100.00
5966;BME280;3009;43.224;27.976;2023-05-27T00:56:59;100201.19;;;15.81;100.00
5966;BME280;3009;43.224;27.976;2023-05-27T00:59:29;100196.75;;;15.89;100.00
5966;BME280;3009;43.224;27.976;2023-05-27T01:01:57;100184.34;;;15.88;100.00
5966;BME280;3009;43.224;27.976;2023-05-27T01:04:26;100184.34;;;15.88;100.00
5966;BME280;3009;43.224;27.976;2023-05-27T01:07:01;100174.59;;;15.83;100.00
5966;BME280;3009;43.224;27.976;2023-05-27T01:09:38;100164.03;;;15.78;100.00
5966;BME280;3009;43.224;27.976;2023-05-27T01:12:16;100170.47;;;15.73;100.00
5966;BME280;3009;43.224;27.976;2023-05-27T01:14:48;100165.56;;;15.63;100.00
5966;BME280;3009;43.224;27.976;2023-05-27T01:17:18;100161.97;;;15.59;100.00
5966;BME280;3009;43.224;27.976;2023-05-27T01:19:48;100161.56;;;15.57;100.00
5966;BME280;3009;43.224;27.976;2023-05-27T01:22:19;100163.38;;;15.53;100.00
5966;BME280;3009;43.224;27.976;2023-05-27T01:24:49;100167.53;;;15.50;100.00
5966;BME280;3009;43.224;27.976;2023-05-27T01:27:17;100178.59;;;15.45;100.00
5966;BME280;3009;43.224;27.976;2023-05-27T01:29:46;100165.25;;;15.36;100.00
5966;BME280;3009;43.224;27.976;2023-05-27T01:32:16;100165.94;;;15.33;100.00
5966;BME280;3009;43.224;27.976;2023-05-27T01:34:51;100158.09;;;15.28;100.00
5966;BME280;3009;43.224;27.976;2023-05-27T01:37:23;100153.38;;;15.25;100.00
5966;BME280;3009;43.224;27.976;2023-05-27T01:39:55;100157.63;;;15.26;100.00
5966;BME280;3009;43.224;27.976;2023-05-27T01:42:24;100156.53;;;15.27;100.00
5966;BME280;3009;43.224;27.976;2023-05-27T01:44:54;100155.19;;;15.21;100.00
5966;BME280;3009;43.224;27.976;2023-05-27T01:47:23;100148.00;;;15.25;100.00
5966;BME280;3009;43.224;27.976;2023-05-27T01:49:52;100158.78;;;15.25;100.00
5966;BME280;3009;43.224;27.976;2023-05-27T01:52:20;100152.78;;;15.32;100.00
5966;BME280;3009;43.224;27.976;2023-05-27T01:54:49;100152.94;;;15.23;100.00
5966;BME280;3009;43.224;27.976;2023-05-27T01:57:20;100138.66;;;15.22;100.00
5966;BME280;3009;43.224;27.976;2023-05-27T01:59:48;100145.09;;;15.34;100.00
5966;BME280;3009;43.224;27.976;2023-05-27T02:02:16;100145.09;;;15.34;100.00
5966;BME280;3009;43.224;27.976;2023-05-27T02:04:45;100138.84;;;15.30;100.00
5966;BME280;3009;43.224;27.976;2023-05-27T02:07:13;100144.59;;;15.28;100.00
5966;BME280;3009;43.224;27.976;2023-05-27T02:09:43;100140.41;;;15.31;100.00
5966;BME280;3009;43.224;27.976;2023-05-27T02:12:11;100144.53;;;15.40;100.00
5966;BME280;3009;43.224;27.976;2023-05-27T02:14:41;100142.94;;;15.39;100.00
5966;BME280;3009;43.224;27.976;2023-05-27T02:17:11;100134.69;;;15.48;100.00
5966;BME280;3009;43.224;27.976;2023-05-27T02:19:41;100134.34;;;15.50;100.00
5966;BME280;3009;43.224;27.976;2023-05-27T02:22:09;100147.16;;;15.53;100.00
5966;BME280;3009;43.224;27.976;2023-05-27T02:24:38;100144.09;;;15.54;100.00
5966;BME280;3009;43.224;27.976;2023-05-27T02:27:06;100129.47;;;15.55;100.00
5966;BME280;3009;43.224;27.976;2023-05-27T02:29:34;100139.66;;;15.62;100.00
5966;BME280;3009;43.224;27.976;2023-05-27T02:32:05;100130.44;;;15.63;100.00
5966;BME280;3009;43.224;27.976;2023-05-27T02:34:33;100136.72;;;15.67;100.00
5966;BME280;3009;43.224;27.976;2023-05-27T02:37:04;100142.97;;;15.71;100.00
5966;BME280;3009;43.224;27.976;2023-05-27T02:39:33;100144.38;;;15.65;100.00
5966;BME280;3009;43.224;27.976;2023-05-27T02:42:01;100159.31;;;15.75;100.00
5966;BME280;3009;43.224;27.976;2023-05-27T02:44:29;100159.19;;;15.71;100.00
5966;BME280;3009;43.224;27.976;2023-05-27T02:46:58;100158.34;;;15.67;100.00
5966;BME280;3009;43.224;27.976;2023-05-27T02:49:27;100154.94;;;15.70;100.00
5966;BME280;3009;43.224;27.976;2023-05-27T02:51:56;100161.13;;;15.71;100.00
5966;BME280;3009;43.224;27.976;2023-05-27T02:54:24;100168.00;;;15.68;100.00
5966;BME280;3009;43.224;27.976;2023-05-27T02:56:52;100164.19;;;15.69;100.00
5966;BME280;3009;43.224;27.976;2023-05-27T02:59:21;100162.34;;;15.73;100.00
5966;BME280;3009;43.224;27.976;2023-05-27T03:01:49;100159.06;;;15.80;100.00
5966;BME280;3009;43.224;27.976;2023-05-27T03:04:17;100159.44;;;15.94;100.00
5966;BME280;3009;43.224;27.976;2023-05-27T03:06:49;100157.66;;;16.18;100.00
5966;BME280;3009;43.224;27.976;2023-05-27T03:09:17;100160.81;;;16.56;100.00
5966;BME280;3009;43.224;27.976;2023-05-27T03:11:46;100148.81;;;16.73;100.00
5966;BME280;3009;43.224;27.976;2023-05-27T03:14:14;100154.84;;;16.66;100.00
5966;BME280;3009;43.224;27.976;2023-05-27T03:16:42;100155.09;;;16.96;100.00
5966;BME280;3009;43.224;27.976;2023-05-27T03:19:12;100148.28;;;17.45;100.00
5966;BME280;3009;43.224;27.976;2023-05-27T03:21:40;100155.03;;;17.78;100.00
5966;BME280;3009;43.224;27.976;2023-05-27T03:24:10;100149.19;;;18.22;100.00
5966;BME280;3009;43.224;27.976;2023-05-27T03:26:38;100148.50;;;18.59;100.00
5966;BME280;3009;43.224;27.976;2023-05-27T03:29:07;100152.63;;;19.07;100.00
5966;BME280;3009;43.224;27.976;2023-05-27T03:31:35;100152.66;;;19.10;100.00
5966;BME280;3009;43.224;27.976;2023-05-27T03:34:03;100154.56;;;19.44;100.00
5966;BME280;3009;43.224;27.976;2023-05-27T03:36:32;100155.88;;;19.61;100.00
5966;BME280;3009;43.224;27.976;2023-05-27T03:39:02;100160.00;;;19.85;99.52
5966;BME280;3009;43.224;27.976;2023-05-27T03:41:32;100154.94;;;19.46;100.00
5966;BME280;3009;43.224;27.976;2023-05-27T03:44:00;100156.03;;;19.34;100.00
5966;BME280;3009;43.224;27.976;2023-05-27T03:46:29;100162.78;;;19.51;99.89
5966;BME280;3009;43.224;27.976;2023-05-27T03:48:57;100171.06;;;18.90;100.00
5966;BME280;3009;43.224;27.976;2023-05-27T03:51:25;100168.22;;;19.13;100.00
5966;BME280;3009;43.224;27.976;2023-05-27T03:53:54;100169.66;;;19.79;100.00
5966;BME280;3009;43.224;27.976;2023-05-27T03:56:22;100177.22;;;20.00;96.02
5966;BME280;3009;43.224;27.976;2023-05-27T03:58:52;100179.50;;;20.50;89.37
5966;BME280;3009;43.224;27.976;2023-05-27T04:01:20;100184.44;;;20.33;90.11
5966;BME280;3009;43.224;27.976;2023-05-27T04:03:49;100178.72;;;21.41;80.90
5966;BME280;3009;43.224;27.976;2023-05-27T04:06:18;100193.53;;;21.43;79.76
5966;BME280;3009;43.224;27.976;2023-05-27T04:08:46;100186.56;;;22.43;76.61
5966;BME280;3009;43.224;27.976;2023-05-27T04:11:15;100193.09;;;22.82;69.50
5966;BME280;3009;43.224;27.976;2023-05-27T04:13:45;100192.69;;;23.65;66.49
5966;BME280;3009;43.224;27.976;2023-05-27T04:16:17;100184.72;;;24.34;63.26
5966;BME280;3009;43.224;27.976;2023-05-27T04:18:45;100190.28;;;25.26;58.59
5966;BME280;3009;43.224;27.976;2023-05-27T04:21:17;100183.63;;;26.49;53.85
5966;BME280;3009;43.224;27.976;2023-05-27T04:23:46;100178.69;;;28.03;47.87
5966;BME280;3009;43.224;27.976;2023-05-27T04:26:14;100185.16;;;28.42;45.41
5966;BME280;3009;43.224;27.976;2023-05-27T04:28:43;100184.63;;;26.59;49.01
5966;BME280;3009;43.224;27.976;2023-05-27T04:31:12;100178.50;;;24.26;57.67
5966;BME280;3009;43.224;27.976;2023-05-27T04:33:44;100186.25;;;24.35;58.43
5966;BME280;3009;43.224;27.976;2023-05-27T04:36:12;100178.69;;;24.08;60.41
5966;BME280;3009;43.224;27.976;2023-05-27T04:38:44;100182.91;;;22.93;64.61
5966;BME280;3009;43.224;27.976;2023-05-27T04:41:13;100178.97;;;23.72;62.46
5966;BME280;3009;43.224;27.976;2023-05-27T04:43:41;100181.00;;;22.79;67.23
5966;BME280;3009;43.224;27.976;2023-05-27T04:46:10;100183.84;;;22.40;70.40
5966;BME280;3009;43.224;27.976;2023-05-27T04:48:39;100187.28;;;21.47;75.96
5966;BME280;3009;43.224;27.976;2023-05-27T04:51:09;100188.13;;;21.58;76.79
5966;BME280;3009;43.224;27.976;2023-05-27T04:53:38;100196.63;;;21.38;78.88
5966;BME280;3009;43.224;27.976;2023-05-27T04:56:07;100187.13;;;20.89;81.19
5966;BME280;3009;43.224;27.976;2023-05-27T04:58:36;100189.63;;;21.37;80.29
5966;BME280;3009;43.224;27.976;2023-05-27T05:01:06;100193.00;;;20.98;82.45
5966;BME280;3009;43.224;27.976;2023-05-27T05:03:44;100189.25;;;20.54;86.59
5966;BME280;3009;43.224;27.976;2023-05-27T05:06:21;100191.97;;;19.58;96.46
5966;BME280;3009;43.224;27.976;2023-05-27T05:08:50;100197.56;;;19.72;97.92
5966;BME280;3009;43.224;27.976;2023-05-27T05:11:18;100197.31;;;19.47;100.00
5966;BME280;3009;43.224;27.976;2023-05-27T05:13:47;100201.09;;;19.05;100.00
5966;BME280;3009;43.224;27.976;2023-05-27T05:16:15;100198.97;;;18.87;100.00
5966;BME280;3009;43.224;27.976;2023-05-27T05:18:43;100205.41;;;18.79;100.00
5966;BME280;3009;43.224;27.976;2023-05-27T05:21:11;100208.41;;;18.70;100.00
5966;BME280;3009;43.224;27.976;2023-05-27T05:23:41;100210.25;;;18.89;100.00
5966;BME280;3009;43.224;27.976;2023-05-27T05:26:10;100219.47;;;18.58;100.00
5966;BME280;3009;43.224;27.976;2023-05-27T05:28:38;100222.00;;;18.44;100.00
5966;BME280;3009;43.224;27.976;2023-05-27T05:31:06;100225.06;;;18.42;100.00
5966;BME280;3009;43.224;27.976;2023-05-27T05:33:35;100220.81;;;18.18;100.00
5966;BME280;3009;43.224;27.976;2023-05-27T05:36:03;100211.69;;;18.30;100.00
5966;BME280;3009;43.224;27.976;2023-05-27T05:38:32;100219.28;;;18.20;100.00
5966;BME280;3009;43.224;27.976;2023-05-27T05:41:01;100221.91;;;18.13;100.00
5966;BME280;3009;43.224;27.976;2023-05-27T05:43:30;100215.69;;;17.89;100.00
5966;BME280;3009;43.224;27.976;2023-05-27T05:45:58;100213.47;;;17.95;100.00
5966;BME280;3009;43.224;27.976;2023-05-27T05:48:28;100223.59;;;17.98;100.00
5966;BME280;3009;43.224;27.976;2023-05-27T05:50:57;100226.56;;;17.89;100.00
5966;BME280;3009;43.224;27.976;2023-05-27T05:53:28;100217.81;;;18.00;100.00
5966;BME280;3009;43.224;27.976;2023-05-27T05:55:58;100219.31;;;17.97;100.00
5966;BME280;3009;43.224;27.976;2023-05-27T05:58:28;100218.72;;;18.08;100.00
5966;BME280;3009;43.224;27.976;2023-05-27T06:00:56;100230.16;;;18.20;100.00
5966;BME280;3009;43.224;27.976;2023-05-27T06:03:25;100227.63;;;18.08;100.00
5966;BME280;3009;43.224;27.976;2023-05-27T06:05:54;100233.59;;;17.94;100.00
5966;BME280;3009;43.224;27.976;2023-05-27T06:08:22;100222.09;;;18.01;100.00
5966;BME280;3009;43.224;27.976;2023-05-27T06:10:50;100233.34;;;18.26;100.00
5966;BME280;3009;43.224;27.976;2023-05-27T06:13:19;100234.13;;;18.27;100.00
5966;BME280;3009;43.224;27.976;2023-05-27T06:15:49;100232.63;;;18.29;100.00
5966;BME280;3009;43.224;27.976;2023-05-27T06:18:17;100228.41;;;18.09;100.00
5966;BME280;3009;43.224;27.976;2023-05-27T06:20:46;100235.94;;;18.42;100.00
5966;BME280;3009;43.224;27.976;2023-05-27T06:23:15;100246.88;;;18.49;100.00
5966;BME280;3009;43.224;27.976;2023-05-27T06:25:43;100238.75;;;18.76;100.00
5966;BME280;3009;43.224;27.976;2023-05-27T06:28:11;100233.84;;;18.85;100.00
5966;BME280;3009;43.224;27.976;2023-05-27T06:30:40;100253.22;;;18.57;100.00
5966;BME280;3009;43.224;27.976;2023-05-27T06:33:11;100247.16;;;18.67;100.00
5966;BME280;3009;43.224;27.976;2023-05-27T06:35:39;100244.97;;;18.50;100.00
5966;BME280;3009;43.224;27.976;2023-05-27T06:38:07;100242.16;;;18.69;100.00
5966;BME280;3009;43.224;27.976;2023-05-27T06:40:36;100239.47;;;18.73;100.00
5966;BME280;3009;43.224;27.976;2023-05-27T06:43:04;100235.53;;;18.93;100.00
5966;BME280;3009;43.224;27.976;2023-05-27T06:45:32;100238.25;;;18.93;100.00
5966;BME280;3009;43.224;27.976;2023-05-27T06:48:01;100240.72;;;19.06;100.00
5966;BME280;3009;43.224;27.976;2023-05-27T06:50:31;100239.47;;;19.30;100.00
5966;BME280;3009;43.224;27.976;2023-05-27T06:52:59;100239.38;;;19.57;100.00
5966;BME280;3009;43.224;27.976;2023-05-27T06:55:27;100245.53;;;19.88;100.00
5966;BME280;3009;43.224;27.976;2023-05-27T06:58:02;100239.94;;;20.14;100.00
5966;BME280;3009;43.224;27.976;2023-05-27T07:00:47;100246.84;;;19.67;100.00
5966;BME280;3009;43.224;27.976;2023-05-27T07:03:16;100256.28;;;20.14;100.00
5966;BME280;3009;43.224;27.976;2023-05-27T07:05:46;100252.66;;;20.03;100.00
5966;BME280;3009;43.224;27.976;2023-05-27T07:08:14;100258.34;;;19.53;100.00
5966;BME280;3009;43.224;27.976;2023-05-27T07:10:42;100245.91;;;19.86;100.00
5966;BME280;3009;43.224;27.976;2023-05-27T07:13:14;100247.97;;;20.00;100.00
5966;BME280;3009;43.224;27.976;2023-05-27T07:15:47;100249.03;;;20.33;100.00
5966;BME280;3009;43.224;27.976;2023-05-27T07:18:16;100251.38;;;19.90;100.00
5966;BME280;3009;43.224;27.976;2023-05-27T07:20:46;100251.13;;;20.02;100.00
5966;BME280;3009;43.224;27.976;2023-05-27T07:23:14;100253.63;;;20.22;100.00
5966;BME280;3009;43.224;27.976;2023-05-27T07:25:46;100255.00;;;20.53;100.00
5966;BME280;3009;43.224;27.976;2023-05-27T07:28:15;100252.03;;;20.73;100.00
5966;BME280;3009;43.224;27.976;2023-05-27T07:30:43;100248.25;;;20.88;99.42
5966;BME280;3009;43.224;27.976;2023-05-27T07:33:12;100250.84;;;20.66;97.56
5966;BME280;3009;43.224;27.976;2023-05-27T07:35:41;100254.19;;;21.08;93.39
5966;BME280;3009;43.224;27.976;2023-05-27T07:38:11;100252.13;;;20.87;91.57
5966;BME280;3009;43.224;27.976;2023-05-27T07:40:39;100254.66;;;20.62;96.49
5966;BME280;3009;43.224;27.976;2023-05-27T07:43:08;100247.19;;;20.48;100.00
5966;BME280;3009;43.224;27.976;2023-05-27T07:45:36;100253.56;;;20.66;100.00
5966;BME280;3009;43.224;27.976;2023-05-27T07:48:04;100253.75;;;20.40;100.00
5966;BME280;3009;43.224;27.976;2023-05-27T07:50:33;100245.81;;;21.71;100.00
5966;BME280;3009;43.224;27.976;2023-05-27T07:53:01;100246.66;;;22.54;86.08
5966;BME280;3009;43.224;27.976;2023-05-27T07:55:32;100247.47;;;22.37;87.99
5966;BME280;3009;43.224;27.976;2023-05-27T07:58:00;100238.06;;;21.91;93.06
5966;BME280;3009;43.224;27.976;2023-05-27T08:00:28;100244.28;;;22.60;84.51
5966;BME280;3009;43.224;27.976;2023-05-27T08:02:57;100235.31;;;22.63;83.44
5966;BME280;3009;43.224;27.976;2023-05-27T08:05:25;100245.09;;;21.88;85.71
5966;BME280;3009;43.224;27.976;2023-05-27T08:07:53;100241.59;;;22.24;87.10
5966;BME280;3009;43.224;27.976;2023-05-27T08:10:22;100234.16;;;22.57;84.14
5966;BME280;3009;43.224;27.976;2023-05-27T08:12:55;100237.94;;;22.99;80.54
5966;BME280;3009;43.224;27.976;2023-05-27T08:15:23;100243.75;;;23.89;77.46
5966;BME280;3009;43.224;27.976;2023-05-27T08:17:52;100246.66;;;24.20;74.99
5966;BME280;3009;43.224;27.976;2023-05-27T08:20:20;100249.88;;;24.12;74.92
5966;BME280;3009;43.224;27.976;2023-05-27T08:22:49;100247.72;;;23.81;75.04
5966;BME280;3009;43.224;27.976;2023-05-27T08:25:17;100243.91;;;23.68;76.44
5966;BME280;3009;43.224;27.976;2023-05-27T08:27:49;100241.03;;;23.08;79.72
5966;BME280;3009;43.224;27.976;2023-05-27T08:30:19;100236.81;;;22.86;80.50
5966;BME280;3009;43.224;27.976;2023-05-27T08:32:48;100254.47;;;22.27;83.77
5966;BME280;3009;43.224;27.976;2023-05-27T08:35:18;100245.50;;;22.30;83.21
5966;BME280;3009;43.224;27.976;2023-05-27T08:37:47;100232.19;;;22.68;82.58
5966;BME280;3009;43.224;27.976;2023-05-27T08:40:17;100221.25;;;22.75;82.22
5966;BME280;3009;43.224;27.976;2023-05-27T08:42:47;100235.28;;;22.77;82.71
5966;BME280;3009;43.224;27.976;2023-05-27T08:45:15;100232.53;;;22.85;80.39
5966;BME280;3009;43.224;27.976;2023-05-27T08:47:45;100234.19;;;22.39;82.08
5966;BME280;3009;43.224;27.976;2023-05-27T08:50:15;100219.19;;;23.05;80.63
5966;BME280;3009;43.224;27.976;2023-05-27T08:52:46;100235.16;;;23.24;79.24
5966;BME280;3009;43.224;27.976;2023-05-27T08:55:15;100220.72;;;23.13;79.33
5966;BME280;3009;43.224;27.976;2023-05-27T08:57:50;100224.41;;;22.48;86.13
5966;BME280;3009;43.224;27.976;2023-05-27T09:00:19;100214.22;;;21.55;100.00
5966;BME280;3009;43.224;27.976;2023-05-27T09:02:49;100220.53;;;20.79;100.00
5966;BME280;3009;43.224;27.976;2023-05-27T09:05:19;100230.41;;;20.42;100.00
5966;BME280;3009;43.224;27.976;2023-05-27T09:07:47;100219.09;;;20.36;100.00
5966;BME280;3009;43.224;27.976;2023-05-27T09:10:16;100216.34;;;20.33;100.00
5966;BME280;3009;43.224;27.976;2023-05-27T09:12:45;100226.41;;;20.25;100.00
5966;BME280;3009;43.224;27.976;2023-05-27T09:15:14;100224.03;;;20.72;100.00
5966;BME280;3009;43.224;27.976;2023-05-27T09:17:43;100219.94;;;21.18;100.00
5966;BME280;3009;43.224;27.976;2023-05-27T09:20:13;100215.31;;;21.33;100.00
5966;BME280;3009;43.224;27.976;2023-05-27T09:22:42;100217.66;;;21.31;100.00
5966;BME280;3009;43.224;27.976;2023-05-27T09:25:10;100194.31;;;21.48;100.00
5966;BME280;3009;43.224;27.976;2023-05-27T09:27:42;100191.19;;;21.42;100.00
5966;BME280;3009;43.224;27.976;2023-05-27T09:30:12;100190.38;;;21.34;100.00
5966;BME280;3009;43.224;27.976;2023-05-27T09:32:41;100181.91;;;21.57;100.00
5966;BME280;3009;43.224;27.976;2023-05-27T09:35:11;100171.75;;;21.72;100.00
5966;BME280;3009;43.224;27.976;2023-05-27T09:37:41;100162.81;;;21.57;100.00
5966;BME280;3009;43.224;27.976;2023-05-27T09:40:13;100162.81;;;22.15;100.00
5966;BME280;3009;43.224;27.976;2023-05-27T09:42:47;100166.66;;;22.43;99.16
5966;BME280;3009;43.224;27.976;2023-05-27T09:45:17;100162.28;;;22.74;98.69
5966;BME280;3009;43.224;27.976;2023-05-27T09:47:48;100179.56;;;22.24;93.90
5966;BME280;3009;43.224;27.976;2023-05-27T09:50:17;100178.38;;;22.22;98.56
5966;BME280;3009;43.224;27.976;2023-05-27T09:52:47;100180.28;;;21.42;97.36
5966;BME280;3009;43.224;27.976;2023-05-27T09:55:31;100175.44;;;20.92;100.00
5966;BME280;3009;43.224;27.976;2023-05-27T09:58:01;100174.75;;;21.10;100.00
5966;BME280;3009;43.224;27.976;2023-05-27T10:00:30;100168.97;;;21.36;100.00
5966;BME280;3009;43.224;27.976;2023-05-27T10:03:01;100164.72;;;21.42;99.04
5966;BME280;3009;43.224;27.976;2023-05-27T10:05:30;100160.88;;;21.69;97.57
5966;BME280;3009;43.224;27.976;2023-05-27T10:08:00;100166.69;;;21.56;100.00
5966;BME280;3009;43.224;27.976;2023-05-27T10:10:33;100172.75;;;20.96;100.00
5966;BME280;3009;43.224;27.976;2023-05-27T10:13:02;100175.09;;;20.97;100.00
5966;BME280;3009;43.224;27.976;2023-05-27T10:15:31;100180.81;;;20.67;100.00
5966;BME280;3009;43.224;27.976;2023-05-27T10:18:02;100174.72;;;21.02;100.00
5966;BME280;3009;43.224;27.976;2023-05-27T10:20:34;100176.56;;;20.77;100.00
5966;BME280;3009;43.224;27.976;2023-05-27T10:23:13;100162.66;;;20.30;100.00
5966;BME280;3009;43.224;27.976;2023-05-27T10:25:46;100179.88;;;20.45;100.00
5966;BME280;3009;43.224;27.976;2023-05-27T10:28:23;100174.91;;;20.61;100.00
5966;BME280;3009;43.224;27.976;2023-05-27T10:30:52;100187.66;;;20.46;100.00
5966;BME280;3009;43.224;27.976;2023-05-27T10:33:28;100195.19;;;20.08;100.00
5966;BME280;3009;43.224;27.976;2023-05-27T10:36:03;100197.88;;;19.63;100.00
5966;BME280;3009;43.224;27.976;2023-05-27T10:38:34;100209.69;;;19.41;100.00
5966;BME280;3009;43.224;27.976;2023-05-27T10:41:03;100214.41;;;19.13;100.00
5966;BME280;3009;43.224;27.976;2023-05-27T10:43:32;100210.09;;;18.82;100.00
5966;BME280;3009;43.224;27.976;2023-05-27T10:46:02;100204.47;;;18.94;100.00
5966;BME280;3009;43.224;27.976;2023-05-27T10:48:31;100211.28;;;19.11;100.00
5966;BME280;3009;43.224;27.976;2023-05-27T10:51:01;100209.09;;;18.90;100.00
5966;BME280;3009;43.224;27.976;2023-05-27T10:53:30;100203.28;;;18.92;100.00
5966;BME280;3009;43.224;27.976;2023-05-27T10:56:00;100205.63;;;18.93;100.00
5966;BME280;3009;43.224;27.976;2023-05-27T10:58:28;100198.81;;;19.07;100.00
5966;BME280;3009;43.224;27.976;2023-05-27T11:00:57;100196.75;;;19.30;100.00
5966;BME280;3009;43.224;27.976;2023-05-27T11:03:27;100190.56;;;19.34;100.00
5966;BME280;3009;43.224;27.976;2023-05-27T11:06:00;100199.91;;;19.36;100.00
5966;BME280;3009;43.224;27.976;2023-05-27T11:08:29;100200.78;;;19.44;100.00
5966;BME280;3009;43.224;27.976;2023-05-27T11:11:00;100197.41;;;19.20;100.00
5966;BME280;3009;43.224;27.976;2023-05-27T11:13:30;100197.94;;;18.99;100.00
5966;BME280;3009;43.224;27.976;2023-05-27T11:16:00;100203.00;;;19.01;100.00
5966;BME280;3009;43.224;27.976;2023-05-27T11:18:37;100190.06;;;18.90;100.00
5966;BME280;3009;43.224;27.976;2023-05-27T11:21:07;100178.63;;;18.77;100.00
5966;BME280;3009;43.224;27.976;2023-05-27T11:23:36;100178.09;;;18.65;100.00
5966;BME280;3009;43.224;27.976;2023-05-27T11:26:18;100173.69;;;18.56;100.00
5966;BME280;3009;43.224;27.976;2023-05-27T11:28:48;100178.84;;;18.65;100.00
5966;BME280;3009;43.224;27.976;2023-05-27T11:31:17;100179.25;;;18.94;100.00
5966;BME280;3009;43.224;27.976;2023-05-27T11:33:49;100171.13;;;18.98;100.00
5966;BME280;3009;43.224;27.976;2023-05-27T11:36:18;100170.47;;;18.77;100.00
5966;BME280;3009;43.224;27.976;2023-05-27T11:38:51;100168.53;;;18.78;100.00
5966;BME280;3009;43.224;27.976;2023-05-27T11:41:23;100169.53;;;18.93;100.00
5966;BME280;3009;43.224;27.976;2023-05-27T11:43:55;100173.91;;;19.01;100.00
5966;BME280;3009;43.224;27.976;2023-05-27T11:46:33;100169.78;;;18.84;100.00
5966;BME280;3009;43.224;27.976;2023-05-27T11:49:03;100162.78;;;18.83;100.00
5966;BME280;3009;43.224;27.976;2023-05-27T11:51:33;100167.88;;;18.58;100.00
5966;BME280;3009;43.224;27.976;2023-05-27T11:54:02;100168.72;;;18.62;100.00
5966;BME280;3009;43.224;27.976;2023-05-27T11:56:32;100168.72;;;18.62;100.00
5966;BME280;3009;43.224;27.976;2023-05-27T11:59:01;100171.78;;;18.57;100.00
5966;BME280;3009;43.224;27.976;2023-05-27T12:01:29;100178.97;;;18.72;100.00
5966;BME280;3009;43.224;27.976;2023-05-27T12:03:58;100172.16;;;18.29;100.00
5966;BME280;3009;43.224;27.976;2023-05-27T12:06:26;100173.91;;;18.44;100.00
5966;BME280;3009;43.224;27.976;2023-05-27T12:08:54;100174.69;;;18.45;100.00
5966;BME280;3009;43.224;27.976;2023-05-27T12:11:23;100189.34;;;18.40;100.00
5966;BME280;3009;43.224;27.976;2023-05-27T12:13:54;100179.91;;;18.57;100.00
5966;BME280;3009;43.224;27.976;2023-05-27T12:16:22;100176.75;;;18.28;100.00
5966;BME280;3009;43.224;27.976;2023-05-27T12:18:51;100188.38;;;18.02;100.00
5966;BME280;3009;43.224;27.976;2023-05-27T12:21:19;100183.78;;;18.29;100.00
5966;BME280;3009;43.224;27.976;2023-05-27T12:23:48;100183.72;;;18.52;100.00
5966;BME280;3009;43.224;27.976;2023-05-27T12:26:18;100193.31;;;18.46;100.00
5966;BME280;3009;43.224;27.976;2023-05-27T12:28:47;100186.00;;;18.23;100.00
5966;BME280;3009;43.224;27.976;2023-05-27T12:31:16;100184.97;;;18.58;100.00
5966;BME280;3009;43.224;27.976;2023-05-27T12:33:45;100177.13;;;18.53;100.00
5966;BME280;3009;43.224;27.976;2023-05-27T12:36:14;100171.53;;;18.39;100.00
5966;BME280;3009;43.224;27.976;2023-05-27T12:38:42;100182.53;;;18.23;100.00
5966;BME280;3009;43.224;27.976;2023-05-27T12:41:11;100181.94;;;18.64;100.00
5966;BME280;3009;43.224;27.976;2023-05-27T12:43:39;100179.38;;;18.78;100.00
5966;BME280;3009;43.224;27.976;2023-05-27T12:46:07;100187.44;;;18.98;100.00
5966;BME280;3009;43.224;27.976;2023-05-27T12:48:37;100180.97;;;19.09;100.00
5966;BME280;3009;43.224;27.976;2023-05-27T12:51:05;100186.03;;;19.45;100.00
5966;BME280;3009;43.224;27.976;2023-05-27T12:53:35;100176.91;;;19.26;100.00
5966;BME280;3009;43.224;27.976;2023-05-27T12:56:04;100171.31;;;19.50;100.00
5966;BME280;3009;43.224;27.976;2023-05-27T12:58:32;100166.03;;;19.26;100.00
5966;BME280;3009;43.224;27.976;2023-05-27T13:01:01;100161.13;;;19.43;100.00
5966;BME280;3009;43.224;27.976;2023-05-27T13:03:29;100161.97;;;19.47;100.00
5966;BME280;3009;43.224;27.976;2023-05-27T13:05:59;100154.94;;;19.46;100.00